Time;durP1;ratioP1;P1;durP2;ratioP2;P2;SDS_P1;SDS_P2;PMS_P1;PMS_P2;Temp;Humidity;BMP_temperature;BMP_pressure;BME280_temperature;BME280_humidity;BME280_pressure;Samples;Min_cycle;Max_cycle;Signal;HPM_P1;HPM_P2
2021/12/04 00:00:23;;;;;;;4.65;2.83;;;3.90;99.90;;;;;;5091925;28;20271;-59
2021/12/04 00:02:52;;;;;;;5.80;2.65;;;3.90;99.90;;;;;;5092134;28;20223;-59
2021/12/04 00:05:20;;;;;;;2.95;2.50;;;3.90;99.90;;;;;;5092087;28;20192;-59
2021/12/04 00:07:46;;;;;;;4.93;2.10;;;3.90;99.90;;;;;;5091919;28;20187;-59
2021/12/04 00:10:21;;;;;;;3.65;2.38;;;3.90;99.90;;;;;;5091983;28;20264;-58
2021/12/04 00:12:47;;;;;;;2.92;1.45;;;3.90;99.90;;;;;;5091942;28;20175;-58
2021/12/04 00:15:13;;;;;;;2.28;1.50;;;3.90;99.90;;;;;;5092119;28;20168;-59
2021/12/04 00:17:39;;;;;;;1.50;1.30;;;3.90;99.90;;;;;;5091821;28;20187;-59
2021/12/04 00:20:07;;;;;;;1.40;1.30;;;3.90;99.90;;;;;;5090818;28;20665;-58
2021/12/04 00:22:33;;;;;;;2.45;1.88;;;3.90;99.90;;;;;;5091154;28;20215;-58
2021/12/04 00:24:58;;;;;;;4.15;2.20;;;3.90;99.90;;;;;;5091806;28;20221;-59
2021/12/04 00:27:24;;;;;;;3.17;1.80;;;3.90;99.90;;;;;;5091982;28;20179;-59
2021/12/04 00:29:49;;;;;;;2.30;1.42;;;3.90;99.90;;;;;;5091772;28;20572;-59
2021/12/04 00:32:25;;;;;;;2.83;1.40;;;3.90;99.90;;;;;;5091928;28;20565;-59
2021/12/04 00:35:00;;;;;;;2.20;1.17;;;3.90;99.90;;;;;;5091608;28;20716;-58
2021/12/04 00:51:06;;;;;;;1.50;1.40;;;3.90;99.90;;;;;;5092067;28;20183;-58
2021/12/04 00:53:31;;;;;;;4.05;2.10;;;3.90;99.90;;;;;;5091575;28;20168;-59
2021/12/04 00:55:57;;;;;;;3.85;2.13;;;3.90;99.90;;;;;;5091523;28;20294;-58
2021/12/04 00:58:22;;;;;;;5.88;2.92;;;3.90;99.90;;;;;;5091572;28;20172;-59
2021/12/04 01:00:48;;;;;;;7.80;3.70;;;3.90;99.90;;;;;;5091214;28;20820;-58
2021/12/04 01:03:14;;;;;;;8.02;3.50;;;3.90;99.90;;;;;;5091414;28;20234;-58
2021/12/04 01:05:40;;;;;;;9.60;4.75;;;3.90;99.90;;;;;;5090245;28;20184;-58
2021/12/04 01:08:05;;;;;;;10.02;4.75;;;3.90;99.90;;;;;;5091567;28;20192;-59
2021/12/04 01:10:31;;;;;;;11.02;4.25;;;3.90;99.90;;;;;;5090844;28;20188;-58
2021/12/04 01:13:00;;;;;;;7.15;3.45;;;3.90;99.90;;;;;;5099094;28;20266;-59
2021/12/04 01:15:27;;;;;;;7.93;3.58;;;3.90;99.90;;;;;;5111786;28;20187;-59
2021/12/04 01:17:52;;;;;;;9.57;3.67;;;3.90;99.90;;;;;;5112001;28;20183;-58
2021/12/04 01:20:19;;;;;;;5.85;2.88;;;3.90;99.90;;;;;;5095601;28;20202;-59
2021/12/04 01:22:44;;;;;;;5.15;2.40;;;4.00;99.90;;;;;;5091360;28;20261;-58
2021/12/04 01:25:10;;;;;;;7.03;2.85;;;4.00;99.90;;;;;;5090962;28;20180;-59
2021/12/04 01:27:37;;;;;;;2.70;2.00;;;4.00;99.90;;;;;;5090805;28;20524;-59
2021/12/04 01:30:05;;;;;;;3.13;1.80;;;4.00;99.90;;;;;;5088469;28;20196;-59
2021/12/04 01:32:31;;;;;;;2.35;1.60;;;4.00;99.90;;;;;;5086714;28;20180;-59
2021/12/04 01:34:57;;;;;;;2.95;1.50;;;4.00;99.90;;;;;;5091515;28;20224;-59
2021/12/04 01:37:22;;;;;;;2.78;1.92;;;4.00;99.90;;;;;;5094513;28;20169;-59
2021/12/04 01:39:48;;;;;;;1.83;1.50;;;4.00;99.90;;;;;;5094136;28;20180;-59
2021/12/04 01:42:18;;;;;;;3.38;1.95;;;4.00;99.90;;;;;;5094310;28;20285;-58
2021/12/04 01:44:43;;;;;;;3.20;1.60;;;4.00;99.90;;;;;;5093901;28;20261;-58
2021/12/04 01:47:20;;;;;;;2.28;1.60;;;4.00;99.90;;;;;;5094178;28;20638;-59
2021/12/04 01:49:48;;;;;;;3.45;1.50;;;4.10;99.90;;;;;;5093976;28;20320;-59
2021/12/04 01:52:15;;;;;;;1.90;1.58;;;4.00;99.90;;;;;;5094220;28;20651;-59
2021/12/04 01:54:40;;;;;;;3.65;1.85;;;4.00;99.90;;;;;;5093874;28;20314;-59
2021/12/04 01:57:06;;;;;;;2.20;1.58;;;4.00;99.90;;;;;;5094226;28;20326;-58
2021/12/04 01:59:32;;;;;;;23.35;8.52;;;4.00;99.90;;;;;;5094409;28;20761;-58
2021/12/04 02:01:57;;;;;;;25.15;9.90;;;4.00;99.90;;;;;;5094569;28;20176;-59
2021/12/04 02:04:23;;;;;;;13.68;6.10;;;4.00;99.90;;;;;;5094469;28;20266;-59
2021/12/04 02:06:48;;;;;;;6.80;3.70;;;4.00;99.90;;;;;;5094336;28;20173;-58
2021/12/04 02:09:14;;;;;;;6.57;2.38;;;4.00;99.90;;;;;;5090625;28;20545;-58
2021/12/04 02:11:40;;;;;;;4.03;2.45;;;4.00;99.90;;;;;;5094359;28;20168;-59
2021/12/04 02:14:06;;;;;;;4.70;2.47;;;4.00;99.90;;;;;;5112973;28;20543;-58
2021/12/04 02:16:32;;;;;;;4.03;2.10;;;4.00;99.90;;;;;;5114462;28;20573;-59
2021/12/04 02:18:57;;;;;;;5.05;1.90;;;3.90;99.90;;;;;;5114310;28;20237;-59
2021/12/04 02:21:23;;;;;;;2.33;1.73;;;3.90;99.90;;;;;;5114058;27;20222;-59
2021/12/04 02:23:49;;;;;;;1.48;1.38;;;3.90;99.90;;;;;;5113762;28;20215;-59
2021/12/04 02:26:14;;;;;;;2.08;1.42;;;3.90;99.90;;;;;;5113995;28;20176;-59
2021/12/04 02:28:45;;;;;;;2.63;1.35;;;3.90;99.90;;;;;;5113755;28;20222;-58
2021/12/04 02:31:11;;;;;;;1.55;1.20;;;3.90;99.90;;;;;;5113834;28;20592;-59
2021/12/04 02:33:37;;;;;;;2.70;1.40;;;3.80;99.90;;;;;;5113726;28;20208;-59
2021/12/04 02:36:06;;;;;;;2.33;1.40;;;3.80;99.90;;;;;;5113986;28;20181;-59
2021/12/04 02:38:33;;;;;;;1.70;1.60;;;3.80;99.90;;;;;;5114180;27;20180;-59
2021/12/04 02:41:01;;;;;;;1.50;1.40;;;3.80;99.90;;;;;;5114297;28;20208;-59
2021/12/04 02:43:30;;;;;;;1.90;1.50;;;3.70;99.90;;;;;;5114171;28;20540;-58
2021/12/04 02:45:56;;;;;;;2.35;1.45;;;3.70;99.90;;;;;;5098601;28;20191;-59
2021/12/04 02:48:21;;;;;;;2.10;1.83;;;3.60;99.90;;;;;;5093597;28;20639;-59
2021/12/04 02:50:47;;;;;;;4.20;2.20;;;3.60;99.90;;;;;;5093574;28;20176;-59
2021/12/04 02:53:12;;;;;;;2.67;2.08;;;3.60;99.90;;;;;;5093700;28;20180;-59
2021/12/04 02:55:39;;;;;;;3.70;1.80;;;3.50;99.90;;;;;;5093168;28;20621;-59
2021/12/04 02:58:05;;;;;;;2.85;1.95;;;3.40;99.90;;;;;;5093546;28;20180;-59
2021/12/04 03:00:32;;;;;;;3.38;2.25;;;3.40;99.90;;;;;;5093240;28;20172;-59
2021/12/04 03:02:57;;;;;;;3.00;2.20;;;3.40;99.90;;;;;;5093144;28;20223;-59
2021/12/04 03:05:26;;;;;;;1.90;1.80;;;3.30;99.90;;;;;;5093375;28;20175;-59
2021/12/04 03:07:56;;;;;;;3.03;1.65;;;3.30;99.90;;;;;;5093177;28;20535;-59
2021/12/04 03:10:22;;;;;;;2.25;1.73;;;3.20;99.90;;;;;;5091720;28;20635;-59
2021/12/04 03:12:48;;;;;;;3.05;2.13;;;3.20;99.90;;;;;;5092907;28;20187;-59
2021/12/04 03:15:15;;;;;;;3.67;2.03;;;3.10;99.90;;;;;;5093223;28;20188;-59
2021/12/04 03:17:41;;;;;;;2.38;1.92;;;3.10;99.90;;;;;;5091691;28;20214;-59
2021/12/04 03:20:08;;;;;;;2.38;2.10;;;3.00;99.90;;;;;;5093121;28;20211;-59
2021/12/04 03:22:33;;;;;;;3.67;2.20;;;3.00;99.90;;;;;;5092792;28;20739;-59
2021/12/04 03:24:59;;;;;;;4.20;2.37;;;3.00;99.90;;;;;;5093035;28;20268;-59
2021/12/04 03:27:26;;;;;;;3.83;2.40;;;3.00;99.90;;;;;;5092774;28;20172;-60
2021/12/04 03:29:58;;;;;;;3.70;2.30;;;2.90;99.90;;;;;;5092871;28;20199;-59
2021/12/04 03:35:26;;;;;;;4.38;3.00;;;2.80;99.90;;;;;;5092718;28;20184;-59
2021/12/04 03:43:09;;;;;;;29.10;9.13;;;2.70;99.90;;;;;;5091931;28;20686;-57
2021/12/04 03:45:37;;;;;;;12.50;5.57;;;2.70;99.90;;;;;;5091883;28;20639;-57
2021/12/04 03:50:52;;;;;;;15.85;5.88;;;2.80;99.90;;;;;;5072649;28;20187;-57
2021/12/04 03:53:18;;;;;;;34.40;10.17;;;2.80;99.90;;;;;;5092451;28;20526;-57
2021/12/04 03:55:44;;;;;;;31.45;10.40;;;2.90;99.90;;;;;;5091921;28;20219;-57
2021/12/04 03:58:09;;;;;;;11.48;5.28;;;2.90;99.90;;;;;;5092096;28;20176;-57
2021/12/04 04:00:35;;;;;;;9.43;4.90;;;3.00;99.90;;;;;;5093325;28;20217;-57
2021/12/04 04:03:00;;;;;;;37.63;11.20;;;3.00;99.90;;;;;;5103506;28;20714;-57
2021/12/04 04:05:27;;;;;;;32.75;10.13;;;3.00;99.90;;;;;;5092199;28;20180;-57
2021/12/04 04:07:53;;;;;;;15.30;6.22;;;3.00;99.90;;;;;;5092146;28;20180;-57
2021/12/04 04:10:20;;;;;;;14.50;6.15;;;3.10;99.90;;;;;;5092168;28;20179;-57
2021/12/04 04:12:46;;;;;;;10.75;5.25;;;3.10;99.90;;;;;;5092086;28;20172;-57
2021/12/04 04:15:12;;;;;;;11.13;6.28;;;3.10;99.90;;;;;;5092215;28;20190;-57
2021/12/04 04:17:42;;;;;;;6.70;4.63;;;3.10;99.90;;;;;;5091956;28;20187;-57
2021/12/04 04:20:10;;;;;;;6.18;3.40;;;3.20;99.90;;;;;;5092022;28;20250;-57
2021/12/04 04:22:35;;;;;;;7.57;3.95;;;3.20;99.90;;;;;;5091825;28;20419;-57
2021/12/04 04:25:01;;;;;;;6.72;4.03;;;3.20;99.90;;;;;;5091990;28;20180;-57
2021/12/04 04:27:27;;;;;;;6.47;3.80;;;3.20;99.90;;;;;;5091756;28;20172;-58
2021/12/04 04:29:52;;;;;;;6.18;3.92;;;3.20;99.90;;;;;;5091960;28;20179;-58
2021/12/04 04:32:18;;;;;;;5.93;3.85;;;3.20;99.90;;;;;;5091986;28;20172;-58
2021/12/04 04:34:51;;;;;;;6.18;4.28;;;3.20;99.90;;;;;;5091790;28;20187;-58
2021/12/04 04:37:23;;;;;;;5.60;4.10;;;3.20;99.90;;;;;;5091966;28;20188;-58
2021/12/04 05:12:26;;;;;;;6.72;4.25;;;3.60;99.90;;;;;;5095439;28;20698;-58
2021/12/04 05:14:57;;;;;;;7.60;4.22;;;3.60;99.90;;;;;;5095352;28;20176;-58
2021/12/04 05:18:08;;;;;;;8.48;4.78;;;3.60;99.90;;;;;;5095407;28;20188;-58
2021/12/04 05:20:37;;;;;;;5.93;3.92;;;3.60;99.90;;;;;;5094280;28;20581;-58
2021/12/04 05:23:03;;;;;;;6.30;3.83;;;3.60;99.90;;;;;;5095400;28;20258;-58
2021/12/04 05:25:30;;;;;;;5.18;3.78;;;3.60;99.90;;;;;;5095036;28;20226;-58
2021/12/04 05:27:56;;;;;;;7.07;3.85;;;3.60;99.90;;;;;;5095229;28;20202;-58
2021/12/04 05:30:22;;;;;;;7.43;4.35;;;3.60;99.90;;;;;;5095081;28;20636;-58
2021/12/04 05:32:47;;;;;;;5.43;3.88;;;3.60;99.90;;;;;;5095112;28;20271;-58
2021/12/04 05:35:13;;;;;;;6.85;4.57;;;3.60;99.90;;;;;;5095111;28;20178;-58
2021/12/04 05:37:38;;;;;;;4.97;3.70;;;3.70;99.90;;;;;;5094990;28;20254;-58
2021/12/04 05:40:10;;;;;;;6.22;4.15;;;3.70;99.90;;;;;;5094999;28;20290;-58
2021/12/04 05:42:35;;;;;;;5.32;3.80;;;3.70;99.90;;;;;;5094792;28;20219;-59
2021/12/04 05:45:01;;;;;;;5.28;3.75;;;3.70;99.90;;;;;;5094903;28;20533;-58
2021/12/04 05:47:35;;;;;;;5.20;4.03;;;3.70;99.90;;;;;;5094775;28;20176;-58
2021/12/04 05:55:23;;;;;;;7.40;4.40;;;3.80;99.90;;;;;;5094552;28;20224;-58
2021/12/04 05:57:49;;;;;;;5.18;3.58;;;3.80;99.90;;;;;;5094724;28;20259;-58
2021/12/04 06:00:21;;;;;;;5.20;3.80;;;3.80;99.90;;;;;;5094688;28;20264;-58
2021/12/04 06:02:47;;;;;;;5.93;3.83;;;3.80;99.90;;;;;;5094546;28;20655;-58
2021/12/04 06:05:14;;;;;;;6.57;3.90;;;3.80;99.90;;;;;;5094526;28;20172;-58
2021/12/04 06:07:40;;;;;;;5.75;3.45;;;3.80;99.90;;;;;;5094371;28;20649;-58
2021/12/04 06:10:07;;;;;;;6.07;4.22;;;3.80;99.90;;;;;;5093048;28;20203;-58
2021/12/04 06:12:33;;;;;;;5.63;3.92;;;3.80;99.90;;;;;;5094284;28;20188;-58
2021/12/04 06:14:59;;;;;;;7.20;4.28;;;3.80;99.90;;;;;;5093901;28;20179;-59
2021/12/04 06:17:25;;;;;;;8.63;5.18;;;3.80;99.90;;;;;;5093733;28;20658;-58
2021/12/04 06:22:40;;;;;;;5.70;3.72;;;3.80;99.90;;;;;;5092624;28;20203;-58
2021/12/04 06:25:14;;;;;;;6.22;4.07;;;3.80;99.90;;;;;;5093770;28;20184;-58
2021/12/04 06:27:41;;;;;;;5.10;3.65;;;3.80;99.90;;;;;;5093464;28;20204;-58
2021/12/04 06:30:10;;;;;;;7.53;4.03;;;3.80;99.90;;;;;;5093546;28;20176;-57
2021/12/04 06:32:37;;;;;;;5.15;3.75;;;3.80;99.90;;;;;;5093206;28;20180;-58
2021/12/04 06:35:05;;;;;;;7.05;4.32;;;3.80;99.90;;;;;;5093388;28;20558;-58
2021/12/04 06:37:31;;;;;;;6.75;4.05;;;3.80;99.90;;;;;;5093129;28;20184;-58
2021/12/04 06:39:57;;;;;;;6.93;4.25;;;3.80;99.90;;;;;;5092973;28;20179;-58
2021/12/04 06:42:23;;;;;;;5.47;4.03;;;3.80;99.90;;;;;;5093063;28;20670;-58
2021/12/04 06:44:51;;;;;;;6.18;4.00;;;3.80;99.90;;;;;;5093317;28;20542;-58
2021/12/04 06:47:16;;;;;;;6.13;4.05;;;3.90;99.90;;;;;;5093683;28;20216;-58
2021/12/04 06:49:43;;;;;;;4.82;3.65;;;3.90;99.90;;;;;;5093367;28;20215;-58
2021/12/04 06:52:15;;;;;;;5.80;4.07;;;3.90;99.90;;;;;;5093444;28;20172;-58
2021/12/04 06:54:48;;;;;;;5.00;3.70;;;3.90;99.90;;;;;;5093321;28;20243;-58
2021/12/04 06:57:14;;;;;;;5.15;3.88;;;3.90;99.90;;;;;;5092063;28;20508;-59
2021/12/04 06:59:41;;;;;;;7.05;3.78;;;3.90;99.90;;;;;;5093331;28;20237;-59
2021/12/04 07:02:06;;;;;;;5.00;3.60;;;3.90;99.90;;;;;;5092778;28;20211;-58
2021/12/04 07:04:37;;;;;;;5.43;3.85;;;4.00;99.90;;;;;;5093521;28;20211;-58
2021/12/04 07:07:04;;;;;;;5.57;3.88;;;4.00;99.90;;;;;;5094380;28;20172;-58
2021/12/04 07:09:29;;;;;;;5.28;3.65;;;4.00;99.90;;;;;;5104582;28;20603;-58
2021/12/04 07:11:55;;;;;;;6.85;4.00;;;4.10;99.90;;;;;;5092004;28;20199;-59
2021/12/04 07:14:20;;;;;;;5.60;4.20;;;4.10;99.90;;;;;;5093193;28;20211;-60
2021/12/04 07:16:47;;;;;;;7.05;4.28;;;4.10;99.90;;;;;;5093523;28;20176;-60
2021/12/04 07:19:12;;;;;;;6.05;4.22;;;4.10;99.90;;;;;;5093369;28;20587;-59
2021/12/04 07:21:38;;;;;;;11.15;4.88;;;4.10;99.90;;;;;;5093018;28;20172;-59
2021/12/04 07:24:04;;;;;;;5.90;4.07;;;4.10;99.90;;;;;;5093012;28;20219;-59
2021/12/04 07:26:30;;;;;;;8.02;5.20;;;4.10;99.90;;;;;;5093263;28;20537;-59
2021/12/04 07:28:55;;;;;;;7.30;5.25;;;4.10;99.90;;;;;;5092918;28;20180;-60
2021/12/04 07:31:21;;;;;;;6.78;4.40;;;4.20;99.90;;;;;;5092941;28;20179;-60
2021/12/04 07:33:49;;;;;;;5.78;4.47;;;4.20;99.90;;;;;;5092393;28;20172;-59
2021/12/04 07:36:15;;;;;;;5.68;4.38;;;4.30;99.90;;;;;;5091459;28;20183;-59
2021/12/04 07:38:41;;;;;;;6.60;4.72;;;4.30;99.90;;;;;;5092736;28;20183;-60
2021/12/04 07:41:08;;;;;;;8.20;4.93;;;4.30;99.90;;;;;;5092314;28;20233;-59
2021/12/04 07:43:33;;;;;;;6.80;4.78;;;4.40;99.90;;;;;;5092291;28;20208;-59
2021/12/04 07:45:59;;;;;;;14.05;6.57;;;4.50;99.90;;;;;;5092627;28;20209;-59
2021/12/04 07:48:26;;;;;;;11.68;6.32;;;4.50;99.90;;;;;;5092706;28;20259;-59
2021/12/04 07:50:51;;;;;;;9.50;6.03;;;4.50;99.90;;;;;;5092481;28;20206;-58
2021/12/04 07:53:17;;;;;;;8.18;5.07;;;4.50;99.90;;;;;;5092533;28;20172;-58
2021/12/04 07:55:43;;;;;;;6.57;4.53;;;4.60;99.90;;;;;;5092058;28;20223;-57
2021/12/04 07:58:08;;;;;;;6.70;4.85;;;4.60;99.90;;;;;;5092537;28;20211;-58
2021/12/04 08:00:34;;;;;;;7.57;5.72;;;4.60;99.90;;;;;;5092206;28;20585;-58
2021/12/04 08:03:02;;;;;;;6.72;5.03;;;4.70;99.90;;;;;;5090890;28;20258;-58
2021/12/04 08:05:31;;;;;;;8.50;5.38;;;4.60;99.90;;;;;;5091718;28;20180;-59
2021/12/04 08:07:57;;;;;;;7.80;5.68;;;4.70;99.90;;;;;;5092148;28;20565;-58
2021/12/04 08:10:23;;;;;;;7.68;5.07;;;4.70;99.90;;;;;;5088432;28;20219;-58
2021/12/04 08:12:49;;;;;;;6.97;5.15;;;4.70;99.90;;;;;;5092419;28;20172;-57
2021/12/04 08:15:17;;;;;;;6.28;4.70;;;4.80;99.90;;;;;;5092150;28;20184;-59
2021/12/04 08:17:43;;;;;;;6.78;4.47;;;4.80;99.90;;;;;;5092050;28;20176;-59
2021/12/04 08:20:11;;;;;;;5.38;4.00;;;4.80;99.90;;;;;;5092125;28;20187;-58
2021/12/04 08:22:37;;;;;;;5.72;4.40;;;4.80;99.90;;;;;;5091769;28;20211;-58
2021/12/04 08:25:04;;;;;;;5.57;4.25;;;4.90;99.90;;;;;;5091974;28;20661;-59
2021/12/04 08:27:30;;;;;;;5.90;4.32;;;4.90;99.90;;;;;;5091653;28;20293;-58
2021/12/04 08:29:56;;;;;;;8.55;5.10;;;4.90;99.90;;;;;;5091800;28;20896;-59
2021/12/04 08:32:23;;;;;;;9.52;5.63;;;5.00;99.90;;;;;;5091864;28;20179;-59
2021/12/04 08:34:50;;;;;;;12.63;7.05;;;5.00;99.90;;;;;;5091364;28;20241;-59
2021/12/04 08:37:15;;;;;;;6.65;4.45;;;5.10;99.90;;;;;;5091825;28;20531;-59
2021/12/04 08:39:41;;;;;;;6.07;4.03;;;5.10;99.90;;;;;;5091935;28;20263;-59
2021/12/04 08:42:07;;;;;;;6.28;4.70;;;5.10;99.90;;;;;;5091715;28;20203;-58
2021/12/04 08:44:33;;;;;;;6.03;4.50;;;5.20;99.90;;;;;;5091577;28;20219;-57
2021/12/04 08:46:59;;;;;;;6.28;4.22;;;5.20;99.90;;;;;;5096049;28;20204;-58
2021/12/04 08:49:26;;;;;;;5.30;4.05;;;5.20;99.90;;;;;;5094688;28;20204;-58
2021/12/04 08:51:51;;;;;;;6.45;3.80;;;5.20;99.90;;;;;;5094612;28;20521;-58
2021/12/04 08:54:17;;;;;;;6.97;4.65;;;5.20;99.90;;;;;;5095639;28;20221;-57
2021/12/04 08:56:43;;;;;;;7.75;4.55;;;5.20;99.90;;;;;;5095898;28;20188;-58
2021/12/04 08:59:09;;;;;;;8.63;5.18;;;5.20;99.90;;;;;;5095793;28;20179;-58
2021/12/04 09:01:38;;;;;;;5.40;4.03;;;5.10;99.90;;;;;;5095395;28;20218;-58
2021/12/04 09:04:10;;;;;;;6.78;4.70;;;5.20;99.90;;;;;;5095614;28;20215;-57
2021/12/04 09:06:37;;;;;;;5.60;3.90;;;5.20;99.90;;;;;;5095391;28;20233;-58
2021/12/04 09:09:05;;;;;;;7.55;4.90;;;5.20;99.90;;;;;;5095333;28;20236;-57
2021/12/04 09:11:35;;;;;;;8.27;5.03;;;5.20;99.90;;;;;;5095482;28;20528;-57
2021/12/04 09:14:03;;;;;;;6.10;3.90;;;5.30;99.90;;;;;;5095660;28;20215;-58
2021/12/04 09:16:29;;;;;;;5.88;3.75;;;5.30;99.90;;;;;;5095379;28;20699;-58
2021/12/04 09:18:56;;;;;;;8.57;4.20;;;5.40;99.90;;;;;;5095638;28;20329;-57
2021/12/04 09:21:23;;;;;;;5.18;3.92;;;5.40;99.90;;;;;;5095454;28;20532;-58
2021/12/04 09:24:01;;;;;;;7.68;4.28;;;5.40;99.90;;;;;;5095222;28;20219;-58
2021/12/04 09:26:38;;;;;;;6.68;4.00;;;5.50;99.90;;;;;;5095248;28;20172;-58
2021/12/04 09:32:30;;;;;;;5.55;4.45;;;5.50;99.90;;;;;;5095210;28;20650;-58
2021/12/04 09:35:02;;;;;;;4.82;3.67;;;5.60;99.90;;;;;;5094516;28;20188;-58
2021/12/04 09:40:37;;;;;;;4.90;3.60;;;5.60;99.90;;;;;;5083578;28;20200;-58
2021/12/04 10:34:57;;;;;;;4.07;2.75;;;6.20;99.90;;;;;;5085321;28;20191;-58
2021/12/04 10:37:27;;;;;;;3.03;2.30;;;6.20;99.90;;;;;;5093926;28;20184;-58
2021/12/04 10:40:05;;;;;;;2.28;2.08;;;6.20;99.90;;;;;;5094019;28;20187;-58
2021/12/04 10:42:44;;;;;;;3.67;2.40;;;6.20;99.90;;;;;;5093600;28;20258;-58
2021/12/04 10:45:34;;;;;;;2.40;2.20;;;6.20;99.90;;;;;;5093900;28;20684;-58
2021/12/04 10:48:08;;;;;;;10.40;5.03;;;6.20;99.90;;;;;;5093684;28;20178;-58
2021/12/04 10:50:43;;;;;;;10.27;5.70;;;6.30;99.90;;;;;;5093695;28;20187;-58
2021/12/04 10:53:14;;;;;;;5.68;3.60;;;6.30;99.90;;;;;;5093733;28;20283;-58
2021/12/04 10:55:58;;;;;;;8.48;3.90;;;6.30;99.90;;;;;;5093315;28;20224;-58
2021/12/04 11:01:15;;;;;;;7.03;2.58;;;6.40;99.90;;;;;;5093268;28;20168;-58
2021/12/04 11:20:29;;;;;;;4.53;2.35;;;6.50;99.90;;;;;;5093389;28;20567;-58
2021/12/04 11:44:46;;;;;;;3.10;2.20;;;6.90;99.90;;;;;;5092846;28;20606;-57
2021/12/04 11:47:12;;;;;;;3.80;2.33;;;6.90;99.90;;;;;;5092904;28;20654;-56
2021/12/04 11:49:38;;;;;;;4.95;2.85;;;6.90;99.90;;;;;;5092832;28;20195;-57
2021/12/04 11:52:11;;;;;;;3.65;2.35;;;7.00;99.90;;;;;;5092671;28;20172;-57
2021/12/04 11:55:00;;;;;;;2.72;2.35;;;7.00;99.90;;;;;;5092086;28;20227;-58
2021/12/04 11:57:35;;;;;;;3.25;2.33;;;7.10;99.90;;;;;;5092451;28;20546;-59
2021/12/04 12:00:24;;;;;;;4.18;2.35;;;7.10;99.90;;;;;;5092220;28;20186;-57
2021/12/04 12:03:03;;;;;;;2.95;2.65;;;7.20;99.90;;;;;;5092438;28;20215;-57
2021/12/04 12:05:29;;;;;;;2.60;2.40;;;7.30;99.90;;;;;;5092398;28;20168;-57
2021/12/04 12:07:57;;;;;;;4.18;2.65;;;7.40;99.90;;;;;;5092291;28;20543;-58
2021/12/04 12:10:26;;;;;;;2.55;2.35;;;7.40;99.90;;;;;;5092069;28;20633;-58
2021/12/04 12:12:56;;;;;;;3.10;2.42;;;7.40;99.90;;;;;;5092471;28;20180;-59
2021/12/04 12:15:32;;;;;;;2.65;2.30;;;7.40;99.90;;;;;;5092236;28;20199;-59
2021/12/04 12:18:17;;;;;;;3.17;2.60;;;7.50;99.90;;;;;;5092266;28;20206;-59
2021/12/04 12:20:49;;;;;;;3.75;2.78;;;7.50;99.90;;;;;;5091920;28;20662;-59
2021/12/04 12:23:18;;;;;;;4.18;2.83;;;7.50;99.90;;;;;;5091878;28;20216;-59
2021/12/04 12:34:08;;;;;;;4.55;3.35;;;7.50;99.90;;;;;;5092312;28;20261;-59
2021/12/04 12:36:33;;;;;;;6.07;3.85;;;7.50;99.90;;;;;;5091907;28;20180;-59
2021/12/04 12:39:05;;;;;;;5.95;3.97;;;7.50;99.90;;;;;;5091895;28;20179;-59
2021/12/04 12:41:42;;;;;;;6.35;4.07;;;7.60;99.90;;;;;;5091946;28;20180;-59
2021/12/04 12:44:17;;;;;;;6.70;5.55;;;7.60;99.90;;;;;;5091801;28;20237;-58
2021/12/04 12:46:53;;;;;;;8.70;5.95;;;7.70;99.90;;;;;;5091719;28;20625;-59
2021/12/04 12:49:26;;;;;;;9.23;6.00;;;7.70;99.90;;;;;;5091360;28;20175;-60
2021/12/04 12:52:05;;;;;;;8.85;6.22;;;7.70;99.90;;;;;;5091260;28;20211;-59
2021/12/04 12:54:55;;;;;;;11.27;6.75;;;7.70;99.90;;;;;;5090867;28;20219;-58
2021/12/04 12:57:26;;;;;;;10.25;6.80;;;7.70;99.90;;;;;;5071643;28;20246;-59
2021/12/04 13:14:45;;;;;;;14.77;7.22;;;7.90;99.90;;;;;;5080346;28;20184;-58
2021/12/04 13:17:19;;;;;;;8.50;5.75;;;7.90;99.90;;;;;;5087875;28;20188;-58
2021/12/04 13:19:48;;;;;;;8.63;5.95;;;7.90;99.90;;;;;;5094164;28;20192;-58
2021/12/04 13:22:21;;;;;;;8.32;5.25;;;7.90;99.90;;;;;;5091228;28;20642;-59
2021/12/04 13:24:49;;;;;;;7.18;5.25;;;7.90;99.90;;;;;;5091379;28;20271;-58
2021/12/04 13:29:46;;;;;;;7.15;5.70;;;7.90;99.90;;;;;;5091391;28;20176;-59
2021/12/04 13:32:14;;;;;;;9.27;5.70;;;7.80;99.90;;;;;;5094759;28;20271;-58
2021/12/04 13:34:46;;;;;;;8.07;5.47;;;7.80;99.90;;;;;;5094870;28;20168;-59
2021/12/04 13:37:12;;;;;;;8.60;6.18;;;7.80;99.90;;;;;;5095133;28;20626;-58
2021/12/04 13:39:41;;;;;;;9.02;6.65;;;7.70;99.90;;;;;;5094180;28;20254;-59
2021/12/04 13:42:07;;;;;;;10.10;6.88;;;7.70;99.90;;;;;;5094957;28;20702;-59
2021/12/04 13:44:45;;;;;;;9.57;6.55;;;7.70;99.90;;;;;;5094981;28;20239;-58
2021/12/04 13:47:12;;;;;;;7.82;5.47;;;7.70;99.90;;;;;;5094948;28;20168;-59
2021/12/04 13:49:53;;;;;;;8.82;6.72;;;7.70;99.90;;;;;;5094628;28;20584;-58
2021/12/04 13:52:19;;;;;;;9.82;6.38;;;7.60;99.90;;;;;;5094921;28;20265;-57
2021/12/04 13:54:49;;;;;;;9.15;6.70;;;7.60;99.90;;;;;;5094961;28;20227;-57
2021/12/04 13:57:15;;;;;;;11.65;6.20;;;7.60;99.90;;;;;;5094602;28;20180;-58
2021/12/04 13:59:43;;;;;;;8.13;6.53;;;7.60;99.90;;;;;;5094508;28;20245;-57
2021/12/04 14:02:20;;;;;;;12.25;7.25;;;7.60;99.90;;;;;;5094609;28;20584;-59
2021/12/04 14:04:58;;;;;;;15.05;6.78;;;7.50;99.90;;;;;;5094664;28;20191;-57
2021/12/04 14:07:24;;;;;;;13.50;8.85;;;7.50;99.90;;;;;;5093955;28;20642;-59
2021/12/04 14:09:49;;;;;;;10.68;7.07;;;7.50;99.90;;;;;;5090087;28;20194;-57
2021/12/04 14:12:15;;;;;;;10.35;7.20;;;7.50;99.90;;;;;;5093540;28;20199;-57
2021/12/04 14:14:41;;;;;;;10.13;7.25;;;7.50;99.90;;;;;;5093712;28;20643;-60
2021/12/04 14:17:13;;;;;;;11.48;7.38;;;7.50;99.90;;;;;;5093747;28;20225;-59
2021/12/04 14:19:40;;;;;;;10.13;6.85;;;7.50;99.90;;;;;;5094073;28;20180;-57
2021/12/04 14:22:15;;;;;;;9.77;7.50;;;7.50;99.90;;;;;;5094039;28;20187;-58
2021/12/04 14:24:45;;;;;;;14.65;8.13;;;7.50;99.90;;;;;;5093896;28;20684;-58
2021/12/04 14:27:15;;;;;;;14.68;8.65;;;7.50;99.90;;;;;;5092299;28;20184;-58
2021/12/04 14:29:46;;;;;;;12.15;8.80;;;7.50;99.90;;;;;;5093865;28;20247;-58
2021/12/04 14:32:12;;;;;;;16.05;10.20;;;7.50;99.90;;;;;;5093968;28;20171;-58
2021/12/04 14:34:39;;;;;;;20.92;13.25;;;7.50;99.90;;;;;;5093662;28;20219;-58
2021/12/04 14:37:11;;;;;;;18.40;12.93;;;7.40;99.90;;;;;;5093945;28;20175;-58
2021/12/04 14:39:42;;;;;;;19.63;13.00;;;7.40;99.90;;;;;;5093709;28;20682;-58
2021/12/04 14:42:16;;;;;;;19.80;12.25;;;7.40;99.90;;;;;;5092764;28;20198;-58
2021/12/04 14:44:46;;;;;;;17.77;9.23;;;7.40;99.90;;;;;;5093888;28;20212;-58
2021/12/04 14:47:12;;;;;;;8.80;6.30;;;7.40;99.90;;;;;;5093839;28;20214;-58
2021/12/04 14:49:40;;;;;;;7.68;5.00;;;7.40;99.90;;;;;;5093472;28;20180;-58
2021/12/04 14:52:06;;;;;;;6.95;3.95;;;7.40;99.90;;;;;;5093655;28;20534;-59
2021/12/04 14:54:35;;;;;;;4.30;3.90;;;7.50;99.90;;;;;;5093258;28;20179;-58
2021/12/04 14:57:01;;;;;;;2.88;2.45;;;7.60;99.90;;;;;;5092806;28;20257;-59
2021/12/04 14:59:32;;;;;;;1.67;1.50;;;7.70;99.90;;;;;;5093232;28;20215;-58
2021/12/04 15:01:59;;;;;;;1.75;1.20;;;7.90;99.90;;;;;;5093483;28;20614;-58
2021/12/04 15:04:26;;;;;;;2.13;1.08;;;8.10;99.90;;;;;;5093308;28;20228;-58
2021/12/04 15:06:51;;;;;;;1.38;0.95;;;8.30;99.90;;;;;;5093413;28;20256;-58
2021/12/04 15:09:17;;;;;;;2.03;0.98;;;8.40;99.90;;;;;;5093118;28;20184;-58
2021/12/04 15:11:47;;;;;;;0.90;0.90;;;8.40;99.90;;;;;;5092565;28;20188;-58
2021/12/04 15:14:21;;;;;;;2.53;1.30;;;8.50;99.90;;;;;;5092411;28;20196;-58
2021/12/04 15:16:50;;;;;;;2.13;1.92;;;8.60;99.90;;;;;;5092170;28;20188;-58
2021/12/04 15:19:37;;;;;;;5.28;4.78;;;8.60;99.90;;;;;;5091111;28;20210;-59
2021/12/04 15:22:03;;;;;;;4.07;2.60;;;8.60;99.90;;;;;;5080595;28;20168;-58
2021/12/04 15:24:42;;;;;;;2.22;1.80;;;8.70;99.90;;;;;;5092956;28;20277;-59
2021/12/04 15:27:18;;;;;;;1.10;1.10;;;8.70;99.90;;;;;;5093127;28;20187;-58
2021/12/04 15:29:50;;;;;;;3.40;0.90;;;8.70;99.90;;;;;;5093019;28;20753;-58
2021/12/04 15:32:22;;;;;;;1.30;1.20;;;8.80;99.90;;;;;;5092874;28;20229;-59
2021/12/04 15:35:01;;;;;;;1.35;1.08;;;8.90;99.90;;;;;;5092778;28;20176;-58
2021/12/04 15:37:36;;;;;;;1.40;1.30;;;8.90;99.90;;;;;;5092792;28;20176;-58
2021/12/04 15:40:05;;;;;;;1.42;1.30;;;8.90;99.90;;;;;;5092858;28;20206;-58
2021/12/04 15:42:50;;;;;;;1.60;1.50;;;8.90;99.90;;;;;;5092077;28;20172;-59
2021/12/04 15:45:38;;;;;;;1.60;1.30;;;8.90;99.90;;;;;;5092568;28;20233;-58
2021/12/04 15:53:27;;;;;;;0.90;0.90;;;9.00;99.90;;;;;;5092292;28;20281;-58
2021/12/04 15:55:56;;;;;;;1.50;1.40;;;9.00;99.90;;;;;;5091328;28;20246;-58
2021/12/04 15:58:29;;;;;;;1.30;1.20;;;9.00;99.90;;;;;;5092267;28;20681;-59
2021/12/04 16:01:05;;;;;;;1.42;1.33;;;9.00;99.90;;;;;;5092490;28;20180;-59
2021/12/04 16:03:32;;;;;;;1.45;1.35;;;9.00;99.90;;;;;;5090982;28;20581;-59
2021/12/04 16:06:01;;;;;;;1.20;1.10;;;9.00;99.90;;;;;;5092211;28;20635;-58
2021/12/04 16:08:29;;;;;;;1.55;1.20;;;9.00;99.90;;;;;;5092272;28;20176;-59
2021/12/04 16:10:56;;;;;;;1.30;1.20;;;9.00;99.90;;;;;;5092257;28;20179;-58
2021/12/04 16:13:27;;;;;;;1.65;1.20;;;9.00;99.90;;;;;;5092240;28;20180;-58
2021/12/04 16:15:55;;;;;;;1.00;0.93;;;9.00;99.90;;;;;;5092215;28;20191;-58
2021/12/04 16:18:27;;;;;;;2.38;1.40;;;9.00;99.90;;;;;;5092051;28;20180;-59